sensor_id;sensor_type;location;lat;lon;timestamp;temperature;humidity
59651;DHT22;45954;49.768;8.636;2022-07-29T00:00:09;23.40;63.70
59651;DHT22;45954;49.768;8.636;2022-07-29T00:02:36;23.60;64.80
59651;DHT22;45954;49.768;8.636;2022-07-29T00:05:03;23.70;65.00
59651;DHT22;45954;49.768;8.636;2022-07-29T00:07:30;23.80;64.80
59651;DHT22;45954;49.768;8.636;2022-07-29T00:09:56;23.90;64.20
59651;DHT22;45954;49.768;8.636;2022-07-29T00:12:24;24.10;63.70
59651;DHT22;45954;49.768;8.636;2022-07-29T00:14:50;24.10;63.10
59651;DHT22;45954;49.768;8.636;2022-07-29T00:17:17;24.10;62.60
59651;DHT22;45954;49.768;8.636;2022-07-29T00:19:43;24.10;62.50
59651;DHT22;45954;49.768;8.636;2022-07-29T00:22:09;24.10;62.70
59651;DHT22;45954;49.768;8.636;2022-07-29T00:24:34;23.80;62.90
59651;DHT22;45954;49.768;8.636;2022-07-29T00:27:00;23.40;63.00
59651;DHT22;45954;49.768;8.636;2022-07-29T00:29:26;23.30;63.60
59651;DHT22;45954;49.768;8.636;2022-07-29T00:31:52;23.00;63.80
59651;DHT22;45954;49.768;8.636;2022-07-29T00:34:18;22.50;66.00
59651;DHT22;45954;49.768;8.636;2022-07-29T00:37:02;22.50;65.10
59651;DHT22;45954;49.768;8.636;2022-07-29T00:39:28;22.90;65.20
59651;DHT22;45954;49.768;8.636;2022-07-29T00:41:54;23.10;65.00
59651;DHT22;45954;49.768;8.636;2022-07-29T00:44:20;23.20;64.80
59651;DHT22;45954;49.768;8.636;2022-07-29T00:46:46;22.90;65.40
59651;DHT22;45954;49.768;8.636;2022-07-29T00:49:12;22.60;65.20
59651;DHT22;45954;49.768;8.636;2022-07-29T00:51:39;22.20;66.30
59651;DHT22;45954;49.768;8.636;2022-07-29T00:54:07;21.70;66.80
59651;DHT22;45954;49.768;8.636;2022-07-29T00:56:33;22.00;67.10
59651;DHT22;45954;49.768;8.636;2022-07-29T00:59:00;21.90;67.20
59651;DHT22;45954;49.768;8.636;2022-07-29T01:01:26;21.80;67.30
59651;DHT22;45954;49.768;8.636;2022-07-29T01:03:54;21.90;67.00
59651;DHT22;45954;49.768;8.636;2022-07-29T01:06:20;21.80;68.00
59651;DHT22;45954;49.768;8.636;2022-07-29T01:08:48;21.50;68.80
59651;DHT22;45954;49.768;8.636;2022-07-29T01:11:18;21.80;67.50
59651;DHT22;45954;49.768;8.636;2022-07-29T01:13:47;22.10;67.10
59651;DHT22;45954;49.768;8.636;2022-07-29T01:16:21;22.30;67.00
59651;DHT22;45954;49.768;8.636;2022-07-29T01:19:00;22.40;66.50
59651;DHT22;45954;49.768;8.636;2022-07-29T01:21:59;22.30;66.40
59651;DHT22;45954;49.768;8.636;2022-07-29T01:28:39;22.20;67.00
59651;DHT22;45954;49.768;8.636;2022-07-29T01:31:10;22.30;67.60
59651;DHT22;45954;49.768;8.636;2022-07-29T01:33:42;22.30;67.50
59651;DHT22;45954;49.768;8.636;2022-07-29T01:36:31;22.40;67.60
59651;DHT22;45954;49.768;8.636;2022-07-29T01:39:11;22.20;67.20
59651;DHT22;45954;49.768;8.636;2022-07-29T01:45:06;22.00;67.70
59651;DHT22;45954;49.768;8.636;2022-07-29T01:47:46;22.20;68.10
59651;DHT22;45954;49.768;8.636;2022-07-29T01:50:45;22.20;67.10
59651;DHT22;45954;49.768;8.636;2022-07-29T01:53:18;22.20;67.80
59651;DHT22;45954;49.768;8.636;2022-07-29T01:55:52;22.10;67.80
59651;DHT22;45954;49.768;8.636;2022-07-29T01:58:20;22.20;67.90
59651;DHT22;45954;49.768;8.636;2022-07-29T02:00:48;22.10;67.60
59651;DHT22;45954;49.768;8.636;2022-07-29T02:03:17;21.80;67.80
59651;DHT22;45954;49.768;8.636;2022-07-29T02:05:47;21.80;67.20
59651;DHT22;45954;49.768;8.636;2022-07-29T02:08:16;21.60;67.10
59651;DHT22;45954;49.768;8.636;2022-07-29T02:10:46;21.70;67.40
59651;DHT22;45954;49.768;8.636;2022-07-29T02:13:15;21.90;67.20
59651;DHT22;45954;49.768;8.636;2022-07-29T02:15:44;21.90;66.80
59651;DHT22;45954;49.768;8.636;2022-07-29T02:18:19;22.10;66.40
59651;DHT22;45954;49.768;8.636;2022-07-29T02:20:53;22.50;65.30
59651;DHT22;45954;49.768;8.636;2022-07-29T02:23:23;22.60;65.00
59651;DHT22;45954;49.768;8.636;2022-07-29T02:25:53;22.70;63.80
59651;DHT22;45954;49.768;8.636;2022-07-29T02:28:25;22.40;64.20
59651;DHT22;45954;49.768;8.636;2022-07-29T02:30:55;22.40;64.60
59651;DHT22;45954;49.768;8.636;2022-07-29T02:33:26;22.30;65.50
59651;DHT22;45954;49.768;8.636;2022-07-29T02:35:54;22.60;63.80
59651;DHT22;45954;49.768;8.636;2022-07-29T02:38:24;22.40;63.20
59651;DHT22;45954;49.768;8.636;2022-07-29T02:41:28;22.40;63.10
59651;DHT22;45954;49.768;8.636;2022-07-29T02:44:06;22.40;62.80
59651;DHT22;45954;49.768;8.636;2022-07-29T02:46:41;22.20;62.00
59651;DHT22;45954;49.768;8.636;2022-07-29T02:52:29;22.30;62.50
59651;DHT22;45954;49.768;8.636;2022-07-29T02:58:13;22.50;61.90
59651;DHT22;45954;49.768;8.636;2022-07-29T03:00:43;22.10;63.20
59651;DHT22;45954;49.768;8.636;2022-07-29T03:03:15;21.80;62.90
59651;DHT22;45954;49.768;8.636;2022-07-29T03:05:41;21.50;63.70
59651;DHT22;45954;49.768;8.636;2022-07-29T03:08:11;21.90;63.70
59651;DHT22;45954;49.768;8.636;2022-07-29T03:10:39;22.00;63.80
59651;DHT22;45954;49.768;8.636;2022-07-29T03:13:10;22.30;61.80
59651;DHT22;45954;49.768;8.636;2022-07-29T03:15:38;22.40;61.90
59651;DHT22;45954;49.768;8.636;2022-07-29T03:18:06;22.40;61.50
59651;DHT22;45954;49.768;8.636;2022-07-29T03:20:33;22.00;63.20
59651;DHT22;45954;49.768;8.636;2022-07-29T03:22:59;22.40;62.50
59651;DHT22;45954;49.768;8.636;2022-07-29T03:25:25;21.80;63.10
59651;DHT22;45954;49.768;8.636;2022-07-29T03:27:52;21.60;62.90
59651;DHT22;45954;49.768;8.636;2022-07-29T03:30:18;21.50;63.70
59651;DHT22;45954;49.768;8.636;2022-07-29T03:32:44;21.70;64.10
59651;DHT22;45954;49.768;8.636;2022-07-29T03:35:10;22.00;62.90
59651;DHT22;45954;49.768;8.636;2022-07-29T03:37:36;22.10;61.90
59651;DHT22;45954;49.768;8.636;2022-07-29T03:40:06;22.30;62.30
59651;DHT22;45954;49.768;8.636;2022-07-29T03:42:36;22.40;61.80
59651;DHT22;45954;49.768;8.636;2022-07-29T03:45:09;22.40;61.40
59651;DHT22;45954;49.768;8.636;2022-07-29T03:47:40;22.40;61.60
59651;DHT22;45954;49.768;8.636;2022-07-29T03:50:12;22.40;61.30
59651;DHT22;45954;49.768;8.636;2022-07-29T03:52:40;22.20;61.20
59651;DHT22;45954;49.768;8.636;2022-07-29T03:55:08;22.20;61.30
59651;DHT22;45954;49.768;8.636;2022-07-29T03:57:36;22.20;62.20
59651;DHT22;45954;49.768;8.636;2022-07-29T04:00:04;22.50;61.20
59651;DHT22;45954;49.768;8.636;2022-07-29T04:02:32;22.40;61.30
59651;DHT22;45954;49.768;8.636;2022-07-29T04:04:58;22.60;61.50
59651;DHT22;45954;49.768;8.636;2022-07-29T04:07:25;22.70;60.80
59651;DHT22;45954;49.768;8.636;2022-07-29T04:09:51;22.50;60.60
59651;DHT22;45954;49.768;8.636;2022-07-29T04:12:17;22.40;61.80
59651;DHT22;45954;49.768;8.636;2022-07-29T04:14:43;22.50;61.50
59651;DHT22;45954;49.768;8.636;2022-07-29T04:17:09;22.50;61.40
59651;DHT22;45954;49.768;8.636;2022-07-29T04:19:34;22.30;61.90
59651;DHT22;45954;49.768;8.636;2022-07-29T04:22:01;22.20;62.80
59651;DHT22;45954;49.768;8.636;2022-07-29T04:24:27;22.20;62.00
59651;DHT22;45954;49.768;8.636;2022-07-29T04:26:53;22.40;61.80
59651;DHT22;45954;49.768;8.636;2022-07-29T04:29:19;22.70;61.60
59651;DHT22;45954;49.768;8.636;2022-07-29T04:31:45;22.60;61.40
59651;DHT22;45954;49.768;8.636;2022-07-29T04:34:12;22.50;62.00
59651;DHT22;45954;49.768;8.636;2022-07-29T04:36:38;22.50;61.80
59651;DHT22;45954;49.768;8.636;2022-07-29T04:39:04;22.50;61.20
59651;DHT22;45954;49.768;8.636;2022-07-29T04:41:31;22.60;61.50
59651;DHT22;45954;49.768;8.636;2022-07-29T04:43:57;22.60;61.50
59651;DHT22;45954;49.768;8.636;2022-07-29T04:46:23;22.50;61.50
59651;DHT22;45954;49.768;8.636;2022-07-29T04:48:49;22.70;61.40
59651;DHT22;45954;49.768;8.636;2022-07-29T04:51:15;22.80;61.00
59651;DHT22;45954;49.768;8.636;2022-07-29T04:53:41;22.70;61.30
59651;DHT22;45954;49.768;8.636;2022-07-29T04:56:07;22.80;61.40
59651;DHT22;45954;49.768;8.636;2022-07-29T04:58:36;22.80;60.80
59651;DHT22;45954;49.768;8.636;2022-07-29T05:01:03;22.50;61.90
59651;DHT22;45954;49.768;8.636;2022-07-29T05:03:29;22.50;61.90
59651;DHT22;45954;49.768;8.636;2022-07-29T05:05:55;22.70;61.70
59651;DHT22;45954;49.768;8.636;2022-07-29T05:08:21;22.70;61.40
59651;DHT22;45954;49.768;8.636;2022-07-29T05:10:47;22.40;62.20
59651;DHT22;45954;49.768;8.636;2022-07-29T05:13:13;22.50;61.80
59651;DHT22;45954;49.768;8.636;2022-07-29T05:15:39;22.70;61.70
59651;DHT22;45954;49.768;8.636;2022-07-29T05:18:05;22.70;61.20
59651;DHT22;45954;49.768;8.636;2022-07-29T05:20:31;22.70;61.70
59651;DHT22;45954;49.768;8.636;2022-07-29T05:22:59;22.80;60.80
59651;DHT22;45954;49.768;8.636;2022-07-29T05:25:27;23.00;61.00
59651;DHT22;45954;49.768;8.636;2022-07-29T05:27:55;23.00;60.70
59651;DHT22;45954;49.768;8.636;2022-07-29T05:30:21;22.90;61.10
59651;DHT22;45954;49.768;8.636;2022-07-29T05:32:47;22.80;62.40
59651;DHT22;45954;49.768;8.636;2022-07-29T05:35:14;22.60;62.10
59651;DHT22;45954;49.768;8.636;2022-07-29T05:37:41;22.70;62.30
59651;DHT22;45954;49.768;8.636;2022-07-29T05:40:08;22.90;61.10
59651;DHT22;45954;49.768;8.636;2022-07-29T05:42:34;23.00;61.00
59651;DHT22;45954;49.768;8.636;2022-07-29T05:45:01;23.20;60.80
59651;DHT22;45954;49.768;8.636;2022-07-29T05:47:27;23.30;60.40
59651;DHT22;45954;49.768;8.636;2022-07-29T05:49:53;23.30;60.00
59651;DHT22;45954;49.768;8.636;2022-07-29T05:52:19;23.30;60.30
59651;DHT22;45954;49.768;8.636;2022-07-29T05:54:45;23.40;60.30
59651;DHT22;45954;49.768;8.636;2022-07-29T05:57:20;23.40;60.00
59651;DHT22;45954;49.768;8.636;2022-07-29T05:59:47;23.60;59.70
59651;DHT22;45954;49.768;8.636;2022-07-29T06:02:14;23.50;60.20
59651;DHT22;45954;49.768;8.636;2022-07-29T06:04:41;23.70;59.60
59651;DHT22;45954;49.768;8.636;2022-07-29T06:07:07;23.70;59.10
59651;DHT22;45954;49.768;8.636;2022-07-29T06:09:34;23.90;59.40
59651;DHT22;45954;49.768;8.636;2022-07-29T06:12:00;23.90;60.00
59651;DHT22;45954;49.768;8.636;2022-07-29T06:14:27;23.90;59.70
59651;DHT22;45954;49.768;8.636;2022-07-29T06:16:54;24.00;59.70
59651;DHT22;45954;49.768;8.636;2022-07-29T06:19:20;24.10;60.80
59651;DHT22;45954;49.768;8.636;2022-07-29T06:21:47;24.20;60.10
59651;DHT22;45954;49.768;8.636;2022-07-29T06:24:14;24.30;60.60
59651;DHT22;45954;49.768;8.636;2022-07-29T06:26:41;24.30;59.90
59651;DHT22;45954;49.768;8.636;2022-07-29T06:29:08;24.40;59.80
59651;DHT22;45954;49.768;8.636;2022-07-29T06:31:36;24.40;59.80
59651;DHT22;45954;49.768;8.636;2022-07-29T06:34:03;24.30;60.10
59651;DHT22;45954;49.768;8.636;2022-07-29T06:36:29;24.40;60.30
59651;DHT22;45954;49.768;8.636;2022-07-29T06:38:55;24.60;60.50
59651;DHT22;45954;49.768;8.636;2022-07-29T06:41:21;24.70;59.90
59651;DHT22;45954;49.768;8.636;2022-07-29T06:43:48;24.80;59.90
59651;DHT22;45954;49.768;8.636;2022-07-29T06:46:17;24.90;59.90
59651;DHT22;45954;49.768;8.636;2022-07-29T06:48:45;24.90;60.90
59651;DHT22;45954;49.768;8.636;2022-07-29T06:51:11;24.80;60.20
59651;DHT22;45954;49.768;8.636;2022-07-29T06:53:38;24.70;60.90
59651;DHT22;45954;49.768;8.636;2022-07-29T06:56:06;24.80;61.70
59651;DHT22;45954;49.768;8.636;2022-07-29T06:58:36;24.70;61.60
59651;DHT22;45954;49.768;8.636;2022-07-29T07:01:04;24.50;61.90
59651;DHT22;45954;49.768;8.636;2022-07-29T07:03:31;24.20;63.40
59651;DHT22;45954;49.768;8.636;2022-07-29T07:05:57;24.20;64.10
59651;DHT22;45954;49.768;8.636;2022-07-29T07:08:23;24.10;63.40
59651;DHT22;45954;49.768;8.636;2022-07-29T07:10:50;24.10;63.80
59651;DHT22;45954;49.768;8.636;2022-07-29T07:13:17;24.20;63.30
59651;DHT22;45954;49.768;8.636;2022-07-29T07:15:44;24.40;63.10
59651;DHT22;45954;49.768;8.636;2022-07-29T07:18:11;24.70;62.80
59651;DHT22;45954;49.768;8.636;2022-07-29T07:20:37;24.90;63.10
59651;DHT22;45954;49.768;8.636;2022-07-29T07:23:03;24.90;65.20
59651;DHT22;45954;49.768;8.636;2022-07-29T07:25:30;25.00;65.10
59651;DHT22;45954;49.768;8.636;2022-07-29T07:27:56;25.10;64.30
59651;DHT22;45954;49.768;8.636;2022-07-29T07:30:22;24.90;64.80
59651;DHT22;45954;49.768;8.636;2022-07-29T07:32:48;24.60;64.30
59651;DHT22;45954;49.768;8.636;2022-07-29T07:35:14;24.30;65.90
59651;DHT22;45954;49.768;8.636;2022-07-29T07:37:40;24.60;65.40
59651;DHT22;45954;49.768;8.636;2022-07-29T07:40:08;24.80;65.40
59651;DHT22;45954;49.768;8.636;2022-07-29T07:42:35;24.70;65.30
59651;DHT22;45954;49.768;8.636;2022-07-29T07:45:01;24.60;66.50
59651;DHT22;45954;49.768;8.636;2022-07-29T07:47:27;24.70;66.50
59651;DHT22;45954;49.768;8.636;2022-07-29T07:49:53;24.20;67.10
59651;DHT22;45954;49.768;8.636;2022-07-29T07:52:21;24.40;67.50
59651;DHT22;45954;49.768;8.636;2022-07-29T07:54:48;24.80;66.20
59651;DHT22;45954;49.768;8.636;2022-07-29T07:57:15;25.10;66.40
59651;DHT22;45954;49.768;8.636;2022-07-29T07:59:41;25.10;66.80
59651;DHT22;45954;49.768;8.636;2022-07-29T08:02:08;25.10;67.00
59651;DHT22;45954;49.768;8.636;2022-07-29T08:04:34;24.60;68.10
59651;DHT22;45954;49.768;8.636;2022-07-29T08:07:01;24.40;68.50
59651;DHT22;45954;49.768;8.636;2022-07-29T08:09:29;24.50;68.30
59651;DHT22;45954;49.768;8.636;2022-07-29T08:11:56;24.80;69.40
59651;DHT22;45954;49.768;8.636;2022-07-29T08:14:23;24.90;68.40
59651;DHT22;45954;49.768;8.636;2022-07-29T08:16:49;25.10;69.60
59651;DHT22;45954;49.768;8.636;2022-07-29T08:19:16;25.50;68.50
59651;DHT22;45954;49.768;8.636;2022-07-29T08:21:42;25.30;68.20
59651;DHT22;45954;49.768;8.636;2022-07-29T08:24:08;25.40;68.50
59651;DHT22;45954;49.768;8.636;2022-07-29T08:26:53;25.40;68.60
59651;DHT22;45954;49.768;8.636;2022-07-29T08:29:19;25.30;69.00
59651;DHT22;45954;49.768;8.636;2022-07-29T08:31:44;25.50;69.30
59651;DHT22;45954;49.768;8.636;2022-07-29T08:34:11;25.70;68.50
59651;DHT22;45954;49.768;8.636;2022-07-29T08:36:38;25.80;67.90
59651;DHT22;45954;49.768;8.636;2022-07-29T08:39:04;25.90;68.40
59651;DHT22;45954;49.768;8.636;2022-07-29T08:41:30;26.10;67.90
59651;DHT22;45954;49.768;8.636;2022-07-29T08:43:56;26.00;68.50
59651;DHT22;45954;49.768;8.636;2022-07-29T08:46:23;25.80;68.80
59651;DHT22;45954;49.768;8.636;2022-07-29T08:48:49;25.90;69.00
59651;DHT22;45954;49.768;8.636;2022-07-29T08:51:17;26.10;68.30
59651;DHT22;45954;49.768;8.636;2022-07-29T08:53:46;25.90;69.10
59651;DHT22;45954;49.768;8.636;2022-07-29T08:56:15;25.90;68.70
59651;DHT22;45954;49.768;8.636;2022-07-29T08:58:47;25.90;68.90
59651;DHT22;45954;49.768;8.636;2022-07-29T09:01:21;26.20;68.70
59651;DHT22;45954;49.768;8.636;2022-07-29T09:03:49;26.10;68.60
59651;DHT22;45954;49.768;8.636;2022-07-29T09:06:18;26.10;69.50
59651;DHT22;45954;49.768;8.636;2022-07-29T09:08:47;26.20;68.50
59651;DHT22;45954;49.768;8.636;2022-07-29T09:11:13;26.50;69.00
59651;DHT22;45954;49.768;8.636;2022-07-29T09:13:40;26.60;68.00
59651;DHT22;45954;49.768;8.636;2022-07-29T09:16:06;26.50;68.60
59651;DHT22;45954;49.768;8.636;2022-07-29T09:21:02;26.30;69.00
59651;DHT22;45954;49.768;8.636;2022-07-29T09:24:09;25.90;69.30
59651;DHT22;45954;49.768;8.636;2022-07-29T09:26:43;25.50;70.30
59651;DHT22;45954;49.768;8.636;2022-07-29T09:29:17;25.70;70.70
59651;DHT22;45954;49.768;8.636;2022-07-29T09:31:55;25.80;70.60
59651;DHT22;45954;49.768;8.636;2022-07-29T09:34:30;26.10;70.40
59651;DHT22;45954;49.768;8.636;2022-07-29T09:36:57;26.40;70.00
59651;DHT22;45954;49.768;8.636;2022-07-29T09:39:33;26.70;70.10
59651;DHT22;45954;49.768;8.636;2022-07-29T09:42:02;26.70;68.00
59651;DHT22;45954;49.768;8.636;2022-07-29T09:44:46;26.90;67.90
59651;DHT22;45954;49.768;8.636;2022-07-29T09:47:18;27.30;68.20
59651;DHT22;45954;49.768;8.636;2022-07-29T09:49:52;27.40;68.40
59651;DHT22;45954;49.768;8.636;2022-07-29T09:52:20;27.60;68.30
59651;DHT22;45954;49.768;8.636;2022-07-29T09:54:47;27.60;68.30
59651;DHT22;45954;49.768;8.636;2022-07-29T09:57:25;27.50;67.80
59651;DHT22;45954;49.768;8.636;2022-07-29T09:59:58;27.70;68.30
59651;DHT22;45954;49.768;8.636;2022-07-29T10:02:36;28.10;68.20
59651;DHT22;45954;49.768;8.636;2022-07-29T10:05:15;28.30;66.10
59651;DHT22;45954;49.768;8.636;2022-07-29T10:10:38;27.80;65.80
59651;DHT22;45954;49.768;8.636;2022-07-29T10:13:07;27.80;66.30
59651;DHT22;45954;49.768;8.636;2022-07-29T10:15:38;27.70;66.50
59651;DHT22;45954;49.768;8.636;2022-07-29T10:18:11;28.00;66.50
59651;DHT22;45954;49.768;8.636;2022-07-29T10:20:39;28.00;66.50
59651;DHT22;45954;49.768;8.636;2022-07-29T10:23:06;28.00;66.50
59651;DHT22;45954;49.768;8.636;2022-07-29T10:25:32;28.30;66.20
59651;DHT22;45954;49.768;8.636;2022-07-29T10:27:59;27.90;66.20
59651;DHT22;45954;49.768;8.636;2022-07-29T10:30:26;27.60;67.10
59651;DHT22;45954;49.768;8.636;2022-07-29T10:33:16;28.10;66.00
59651;DHT22;45954;49.768;8.636;2022-07-29T10:39:19;29.10;65.10
59651;DHT22;45954;49.768;8.636;2022-07-29T10:44:53;28.40;65.30
59651;DHT22;45954;49.768;8.636;2022-07-29T10:47:26;28.30;66.00
59651;DHT22;45954;49.768;8.636;2022-07-29T10:49:59;28.90;65.10
59651;DHT22;45954;49.768;8.636;2022-07-29T10:52:52;28.80;65.40
59651;DHT22;45954;49.768;8.636;2022-07-29T10:55:33;28.90;64.90
59651;DHT22;45954;49.768;8.636;2022-07-29T10:58:22;29.10;65.00
59651;DHT22;45954;49.768;8.636;2022-07-29T11:00:53;29.00;65.50
59651;DHT22;45954;49.768;8.636;2022-07-29T11:03:46;29.20;64.90
59651;DHT22;45954;49.768;8.636;2022-07-29T11:06:14;29.50;64.20
59651;DHT22;45954;49.768;8.636;2022-07-29T11:08:40;29.50;62.90
59651;DHT22;45954;49.768;8.636;2022-07-29T11:13:46;29.20;64.50
59651;DHT22;45954;49.768;8.636;2022-07-29T11:16:16;29.10;64.30
59651;DHT22;45954;49.768;8.636;2022-07-29T11:21:43;28.80;64.40
59651;DHT22;45954;49.768;8.636;2022-07-29T11:27:16;28.20;64.70
59651;DHT22;45954;49.768;8.636;2022-07-29T11:29:55;28.00;65.20
59651;DHT22;45954;49.768;8.636;2022-07-29T11:32:24;28.10;65.50
59651;DHT22;45954;49.768;8.636;2022-07-29T11:37:37;29.20;63.90
59651;DHT22;45954;49.768;8.636;2022-07-29T11:50:15;28.80;63.80
59651;DHT22;45954;49.768;8.636;2022-07-29T11:52:45;29.00;64.40
59651;DHT22;45954;49.768;8.636;2022-07-29T11:55:17;29.60;63.60
59651;DHT22;45954;49.768;8.636;2022-07-29T11:57:59;30.10;63.30
59651;DHT22;45954;49.768;8.636;2022-07-29T12:00:35;30.60;63.00
59651;DHT22;45954;49.768;8.636;2022-07-29T12:03:06;30.90;62.10
59651;DHT22;45954;49.768;8.636;2022-07-29T12:05:40;30.90;62.10
59651;DHT22;45954;49.768;8.636;2022-07-29T12:10:46;29.90;61.70
59651;DHT22;45954;49.768;8.636;2022-07-29T12:13:15;30.30;62.70
59651;DHT22;45954;49.768;8.636;2022-07-29T12:15:52;30.10;62.20
59651;DHT22;45954;49.768;8.636;2022-07-29T12:18:23;29.90;62.70
59651;DHT22;45954;49.768;8.636;2022-07-29T12:20:57;29.90;62.20
59651;DHT22;45954;49.768;8.636;2022-07-29T12:23:32;30.40;62.20
59651;DHT22;45954;49.768;8.636;2022-07-29T12:25:59;30.50;61.80
59651;DHT22;45954;49.768;8.636;2022-07-29T12:28:25;30.40;61.40
59651;DHT22;45954;49.768;8.636;2022-07-29T12:30:51;30.90;61.90
59651;DHT22;45954;49.768;8.636;2022-07-29T12:35:53;31.10;60.20
59651;DHT22;45954;49.768;8.636;2022-07-29T12:38:21;31.40;61.10
59651;DHT22;45954;49.768;8.636;2022-07-29T12:40:48;31.50;59.60
59651;DHT22;45954;49.768;8.636;2022-07-29T12:45:55;31.30;60.40
59651;DHT22;45954;49.768;8.636;2022-07-29T12:48:42;31.00;60.90
59651;DHT22;45954;49.768;8.636;2022-07-29T12:51:10;31.20;60.40
59651;DHT22;45954;49.768;8.636;2022-07-29T12:53:38;31.10;60.10
59651;DHT22;45954;49.768;8.636;2022-07-29T12:56:05;30.60;60.70
59651;DHT22;45954;49.768;8.636;2022-07-29T12:58:41;30.50;60.80
59651;DHT22;45954;49.768;8.636;2022-07-29T13:01:12;31.10;61.30
59651;DHT22;45954;49.768;8.636;2022-07-29T13:06:41;31.80;61.40
59651;DHT22;45954;49.768;8.636;2022-07-29T13:09:11;32.00;59.10
59651;DHT22;45954;49.768;8.636;2022-07-29T13:11:44;31.20;59.30
59651;DHT22;45954;49.768;8.636;2022-07-29T13:14:14;31.00;59.80
59651;DHT22;45954;49.768;8.636;2022-07-29T13:17:08;31.20;59.30
59651;DHT22;45954;49.768;8.636;2022-07-29T13:19:44;31.60;58.20
59651;DHT22;45954;49.768;8.636;2022-07-29T13:22:17;32.10;58.90
59651;DHT22;45954;49.768;8.636;2022-07-29T13:24:51;31.80;58.30
59651;DHT22;45954;49.768;8.636;2022-07-29T13:27:21;32.60;56.90
59651;DHT22;45954;49.768;8.636;2022-07-29T13:29:49;31.70;57.10
59651;DHT22;45954;49.768;8.636;2022-07-29T13:32:18;31.80;58.30
59651;DHT22;45954;49.768;8.636;2022-07-29T13:34:45;31.50;57.00
59651;DHT22;45954;49.768;8.636;2022-07-29T13:37:11;31.60;56.60
59651;DHT22;45954;49.768;8.636;2022-07-29T13:39:37;31.50;56.90
59651;DHT22;45954;49.768;8.636;2022-07-29T13:42:04;31.90;56.60
59651;DHT22;45954;49.768;8.636;2022-07-29T13:44:31;31.70;56.60
59651;DHT22;45954;49.768;8.636;2022-07-29T13:46:57;31.30;57.20
59651;DHT22;45954;49.768;8.636;2022-07-29T13:49:25;31.30;56.50
59651;DHT22;45954;49.768;8.636;2022-07-29T13:51:51;31.40;56.10
59651;DHT22;45954;49.768;8.636;2022-07-29T13:54:17;30.40;57.00
59651;DHT22;45954;49.768;8.636;2022-07-29T13:56:43;30.30;57.90
59651;DHT22;45954;49.768;8.636;2022-07-29T13:59:09;30.50;57.10
59651;DHT22;45954;49.768;8.636;2022-07-29T14:01:35;30.90;56.80
59651;DHT22;45954;49.768;8.636;2022-07-29T14:04:01;31.20;56.50
59651;DHT22;45954;49.768;8.636;2022-07-29T14:06:28;30.80;56.60
59651;DHT22;45954;49.768;8.636;2022-07-29T14:08:54;30.80;56.80
59651;DHT22;45954;49.768;8.636;2022-07-29T14:11:20;30.30;57.60
59651;DHT22;45954;49.768;8.636;2022-07-29T14:13:46;30.30;58.40
59651;DHT22;45954;49.768;8.636;2022-07-29T14:16:12;29.80;58.60
59651;DHT22;45954;49.768;8.636;2022-07-29T14:18:38;29.40;59.80
59651;DHT22;45954;49.768;8.636;2022-07-29T14:21:04;29.60;60.20
59651;DHT22;45954;49.768;8.636;2022-07-29T14:23:30;29.60;60.10
59651;DHT22;45954;49.768;8.636;2022-07-29T14:25:56;29.60;59.60
59651;DHT22;45954;49.768;8.636;2022-07-29T14:28:22;29.40;60.20
59651;DHT22;45954;49.768;8.636;2022-07-29T14:30:48;29.10;60.40
59651;DHT22;45954;49.768;8.636;2022-07-29T14:33:14;29.10;60.60
59651;DHT22;45954;49.768;8.636;2022-07-29T14:35:40;29.20;60.40
59651;DHT22;45954;49.768;8.636;2022-07-29T14:38:06;29.30;61.40
59651;DHT22;45954;49.768;8.636;2022-07-29T14:40:32;29.40;60.00
59651;DHT22;45954;49.768;8.636;2022-07-29T14:42:58;29.40;60.30
59651;DHT22;45954;49.768;8.636;2022-07-29T14:45:24;29.30;60.50
59651;DHT22;45954;49.768;8.636;2022-07-29T14:47:50;29.40;60.20
59651;DHT22;45954;49.768;8.636;2022-07-29T14:50:16;29.40;61.40
59651;DHT22;45954;49.768;8.636;2022-07-29T14:52:42;29.60;60.30
59651;DHT22;45954;49.768;8.636;2022-07-29T14:55:08;29.40;60.30
59651;DHT22;45954;49.768;8.636;2022-07-29T14:57:34;30.00;60.00
59651;DHT22;45954;49.768;8.636;2022-07-29T15:00:01;30.40;59.30
59651;DHT22;45954;49.768;8.636;2022-07-29T15:02:28;30.50;58.50
59651;DHT22;45954;49.768;8.636;2022-07-29T15:04:54;30.50;57.20
59651;DHT22;45954;49.768;8.636;2022-07-29T15:07:20;30.20;57.40
59651;DHT22;45954;49.768;8.636;2022-07-29T15:09:46;30.20;57.90
59651;DHT22;45954;49.768;8.636;2022-07-29T15:12:11;30.10;57.40
59651;DHT22;45954;49.768;8.636;2022-07-29T15:14:37;30.50;56.70
59651;DHT22;45954;49.768;8.636;2022-07-29T15:17:03;31.00;56.70
59651;DHT22;45954;49.768;8.636;2022-07-29T15:19:29;31.20;55.30
59651;DHT22;45954;49.768;8.636;2022-07-29T15:21:55;31.30;55.40
59651;DHT22;45954;49.768;8.636;2022-07-29T15:24:21;30.90;54.40
59651;DHT22;45954;49.768;8.636;2022-07-29T15:26:47;31.30;54.20
59651;DHT22;45954;49.768;8.636;2022-07-29T15:29:14;31.30;54.00
59651;DHT22;45954;49.768;8.636;2022-07-29T15:31:40;31.60;53.90
59651;DHT22;45954;49.768;8.636;2022-07-29T15:34:06;31.40;54.20
59651;DHT22;45954;49.768;8.636;2022-07-29T15:36:32;31.50;53.90
59651;DHT22;45954;49.768;8.636;2022-07-29T15:38:58;31.80;53.60
59651;DHT22;45954;49.768;8.636;2022-07-29T15:41:24;31.80;53.10
59651;DHT22;45954;49.768;8.636;2022-07-29T15:43:50;31.80;53.20
59651;DHT22;45954;49.768;8.636;2022-07-29T15:46:18;32.00;53.30
59651;DHT22;45954;49.768;8.636;2022-07-29T15:49:05;32.20;52.90
59651;DHT22;45954;49.768;8.636;2022-07-29T15:51:32;31.20;53.40
59651;DHT22;45954;49.768;8.636;2022-07-29T15:54:01;31.30;53.50
59651;DHT22;45954;49.768;8.636;2022-07-29T15:56:28;30.90;53.30
59651;DHT22;45954;49.768;8.636;2022-07-29T15:58:55;31.00;53.50
59651;DHT22;45954;49.768;8.636;2022-07-29T16:01:22;30.70;54.10
59651;DHT22;45954;49.768;8.636;2022-07-29T16:03:48;30.70;53.90
59651;DHT22;45954;49.768;8.636;2022-07-29T16:06:15;30.70;54.00
59651;DHT22;45954;49.768;8.636;2022-07-29T16:08:41;30.60;53.60
59651;DHT22;45954;49.768;8.636;2022-07-29T16:11:07;30.50;54.80
59651;DHT22;45954;49.768;8.636;2022-07-29T16:13:33;30.20;56.60
59651;DHT22;45954;49.768;8.636;2022-07-29T16:15:59;30.70;56.40
59651;DHT22;45954;49.768;8.636;2022-07-29T16:18:25;31.30;55.30
59651;DHT22;45954;49.768;8.636;2022-07-29T16:20:51;32.00;54.80
59651;DHT22;45954;49.768;8.636;2022-07-29T16:23:17;32.60;53.60
59651;DHT22;45954;49.768;8.636;2022-07-29T16:25:43;32.40;53.60
59651;DHT22;45954;49.768;8.636;2022-07-29T16:28:09;32.20;53.80
59651;DHT22;45954;49.768;8.636;2022-07-29T16:30:36;31.90;53.10
59651;DHT22;45954;49.768;8.636;2022-07-29T16:33:02;31.20;54.10
59651;DHT22;45954;49.768;8.636;2022-07-29T16:35:28;31.20;55.90
59651;DHT22;45954;49.768;8.636;2022-07-29T16:37:57;31.00;56.30